Time,TemperatureF,DewpointF,PressureIn,WindDirection,WindDirectionDegrees,WindSpeedMPH,WindSpeedGustMPH,Humidity,HourlyPrecipIn,Conditions,Clouds,dailyrainin,SolarRadiationWatts/m^2,SoftwareType,DateUTC
2013-08-18 00:11:00,60.3,59.0,30.25,NW,324,0.0,-999.0,95,-99.99,,,0.00,0,weatherlink.com 1.10,2013-08-18 04:11:00,
2013-08-18 00:26:00,60.0,59.0,30.25,NW,324,0.0,-999.0,95,-99.99,,,0.00,0,weatherlink.com 1.10,2013-08-18 04:26:00,
2013-08-18 00:41:00,59.5,58.0,30.25,NW,324,0.0,-999.0,95,-99.99,,,0.00,0,weatherlink.com 1.10,2013-08-18 04:41:00,
2013-08-18 00:56:00,59.3,58.0,30.24,NW,324,0.0,-999.0,96,-99.99,,,0.00,0,weatherlink.com 1.10,2013-08-18 04:56:00,
2013-08-18 01:11:00,59.0,58.0,30.24,NW,323,0.0,-999.0,95,-99.99,,,0.00,0,weatherlink.com 1.10,2013-08-18 05:11:00,
2013-08-18 01:26:00,59.0,58.0,30.24,NW,324,0.0,-999.0,96,-99.99,,,0.00,0,weatherlink.com 1.10,2013-08-18 05:26:00,
2013-08-18 01:41:00,58.9,58.0,30.24,NW,324,0.0,-999.0,96,-99.99,,,0.00,0,weatherlink.com 1.10,2013-08-18 05:41:00,
2013-08-18 01:56:00,58.8,58.0,30.25,NW,324,0.0,-999.0,96,-99.99,,,0.00,0,weatherlink.com 1.10,2013-08-18 05:56:00,
2013-08-18 02:11:00,58.6,58.0,30.24,NW,324,0.0,-999.0,96,-99.99,,,0.00,0,weatherlink.com 1.10,2013-08-18 06:11:00,
2013-08-18 02:26:00,58.7,58.0,30.23,NW,324,0.0,-999.0,96,-99.99,,,0.00,0,weatherlink.com 1.10,2013-08-18 06:26:00,
2013-08-18 02:41:00,58.6,58.0,30.24,NW,324,0.0,-999.0,97,-99.99,,,0.00,0,weatherlink.com 1.10,2013-08-18 06:41:00,
2013-08-18 02:56:00,58.4,57.0,30.24,NW,324,0.0,-999.0,96,-99.99,,,0.00,0,weatherlink.com 1.10,2013-08-18 06:56:00,
2013-08-18 03:11:00,58.3,58.0,30.24,NW,324,0.0,-999.0,97,-99.99,,,0.00,0,weatherlink.com 1.10,2013-08-18 07:11:00,
2013-08-18 03:26:00,58.3,58.0,30.23,NW,324,0.0,-999.0,97,-99.99,,,0.00,0,weatherlink.com 1.10,2013-08-18 07:26:00,
2013-08-18 03:41:00,58.3,58.0,30.23,NW,324,0.0,-999.0,97,-99.99,,,0.00,0,weatherlink.com 1.10,2013-08-18 07:41:00,
2013-08-18 03:56:00,58.2,57.0,30.24,NW,324,0.0,-999.0,97,-99.99,,,0.00,0,weatherlink.com 1.10,2013-08-18 07:56:00,
2013-08-18 04:11:00,58.4,58.0,30.24,NW,324,0.0,-999.0,97,-99.99,,,0.00,0,weatherlink.com 1.10,2013-08-18 08:11:00,
2013-08-18 04:26:00,58.3,58.0,30.23,NW,324,0.0,-999.0,97,-99.99,,,0.00,0,weatherlink.com 1.10,2013-08-18 08:26:00,
2013-08-18 04:41:00,58.3,58.0,30.23,NW,324,0.0,-999.0,97,-99.99,,,0.00,0,weatherlink.com 1.10,2013-08-18 08:41:00,
2013-08-18 04:56:00,58.1,57.0,30.23,NW,324,0.0,-999.0,97,-99.99,,,0.00,0,weatherlink.com 1.10,2013-08-18 08:56:00,
2013-08-18 05:11:00,57.8,57.0,30.24,NW,324,0.0,-999.0,97,-99.99,,,0.00,0,weatherlink.com 1.10,2013-08-18 09:11:00,
2013-08-18 05:26:00,57.7,57.0,30.23,NW,324,0.0,-999.0,97,-99.99,,,0.00,0,weatherlink.com 1.10,2013-08-18 09:26:00,
2013-08-18 05:41:00,58.0,57.0,30.23,NW,324,0.0,-999.0,97,-99.99,,,0.00,0,weatherlink.com 1.10,2013-08-18 09:41:00,
2013-08-18 05:56:00,58.0,57.0,30.24,NW,324,0.0,-999.0,97,-99.99,,,0.00,0,weatherlink.com 1.10,2013-08-18 09:56:00,
2013-08-18 06:11:00,58.0,57.0,30.24,NW,324,0.0,-999.0,97,-99.99,,,0.00,0,weatherlink.com 1.10,2013-08-18 10:11:00,
2013-08-18 06:26:00,58.2,57.0,30.24,NW,324,0.0,-999.0,97,-99.99,,,0.00,9,weatherlink.com 1.10,2013-08-18 10:26:00,
2013-08-18 06:41:00,58.4,58.0,30.24,NW,324,0.0,-999.0,97,-99.99,,,0.00,12,weatherlink.com 1.10,2013-08-18 10:41:00,
2013-08-18 06:56:00,58.5,58.0,30.25,NW,324,0.0,-999.0,97,-99.99,,,0.00,30,weatherlink.com 1.10,2013-08-18 10:56:00,
2013-08-18 07:11:00,58.7,58.0,30.25,NW,323,0.0,-999.0,97,-99.99,,,0.00,46,weatherlink.com 1.10,2013-08-18 11:11:00,
2013-08-18 07:26:00,59.1,58.0,30.25,NW,324,0.0,-999.0,97,-99.99,,,0.00,60,weatherlink.com 1.10,2013-08-18 11:26:00,
2013-08-18 07:41:00,59.3,59.0,30.25,NW,324,0.0,-999.0,97,-99.99,,,0.00,77,weatherlink.com 1.10,2013-08-18 11:41:00,
2013-08-18 07:56:00,59.7,59.0,30.24,NW,324,0.0,-999.0,97,-99.99,,,0.00,114,weatherlink.com 1.10,2013-08-18 11:56:00,
2013-08-18 08:11:00,60.2,59.0,30.25,NW,324,0.0,-999.0,97,-99.99,,,0.00,146,weatherlink.com 1.10,2013-08-18 12:11:00,
2013-08-18 08:26:00,60.8,60.0,30.25,NW,323,0.0,-999.0,97,-99.99,,,0.00,197,weatherlink.com 1.10,2013-08-18 12:26:00,
2013-08-18 08:41:00,62.0,61.0,30.25,NW,324,0.0,-999.0,96,-99.99,,,0.00,197,weatherlink.com 1.10,2013-08-18 12:41:00,
2013-08-18 08:56:00,62.8,61.0,30.25,NW,323,0.0,-999.0,94,-99.99,,,0.00,216,weatherlink.com 1.10,2013-08-18 12:56:00,
2013-08-18 09:11:00,63.4,61.0,30.24,NNW,337,0.0,-999.0,93,-99.99,,,0.00,185,weatherlink.com 1.10,2013-08-18 13:11:00,
2013-08-18 09:26:00,64.5,62.0,30.24,NNW,337,0.0,-999.0,92,-99.99,,,0.00,283,weatherlink.com 1.10,2013-08-18 13:26:00,
2013-08-18 09:41:00,65.1,62.0,30.24,NNW,338,0.0,-999.0,89,-99.99,,,0.00,243,weatherlink.com 1.10,2013-08-18 13:41:00,
2013-08-18 09:56:00,66.5,63.0,30.24,NNW,338,0.0,-999.0,88,-99.99,,,0.00,336,weatherlink.com 1.10,2013-08-18 13:56:00,
2013-08-18 10:11:00,67.6,63.0,30.23,NNW,339,0.0,-999.0,85,-99.99,,,0.00,327,weatherlink.com 1.10,2013-08-18 14:11:00,
2013-08-18 10:26:00,68.6,64.0,30.24,NNW,339,0.0,-999.0,85,-99.99,,,0.00,483,weatherlink.com 1.10,2013-08-18 14:26:00,
2013-08-18 10:41:00,70.2,65.0,30.24,NNW,339,0.0,-999.0,82,-99.99,,,0.00,466,weatherlink.com 1.10,2013-08-18 14:41:00,
2013-08-18 10:56:00,71.7,65.0,30.23,NNW,339,0.0,-999.0,78,-99.99,,,0.00,323,weatherlink.com 1.10,2013-08-18 14:56:00,
2013-08-18 11:11:00,73.2,66.0,30.22,NNW,333,0.0,-999.0,77,-99.99,,,0.00,520,weatherlink.com 1.10,2013-08-18 15:11:00,
2013-08-18 11:26:00,73.1,65.0,30.22,NW,315,0.0,-999.0,76,-99.99,,,0.00,983,weatherlink.com 1.10,2013-08-18 15:26:00,
2013-08-18 11:41:00,74.4,65.0,30.22,NW,315,0.0,-999.0,72,-99.99,,,0.00,601,weatherlink.com 1.10,2013-08-18 15:41:00,
2013-08-18 11:56:00,75.7,65.0,30.22,East,94,0.0,-999.0,69,-99.99,,,0.00,533,weatherlink.com 1.10,2013-08-18 15:56:00,
2013-08-18 12:11:00,76.2,67.0,30.22,NW,311,0.0,-999.0,72,-99.99,,,0.00,329,weatherlink.com 1.10,2013-08-18 16:11:00,
2013-08-18 12:26:00,75.8,64.0,30.21,NW,311,0.0,-999.0,68,-99.99,,,0.00,139,weatherlink.com 1.10,2013-08-18 16:26:00,
2013-08-18 12:41:00,75.7,66.0,30.21,NW,311,0.0,-999.0,71,-99.99,,,0.00,185,weatherlink.com 1.10,2013-08-18 16:41:00,
2013-08-18 12:56:00,76.0,65.0,30.21,NW,311,0.0,-999.0,69,-99.99,,,0.00,216,weatherlink.com 1.10,2013-08-18 16:56:00,
2013-08-18 13:11:00,75.6,66.0,30.21,NW,311,0.0,-999.0,71,-99.99,,,0.00,148,weatherlink.com 1.10,2013-08-18 17:11:00,
2013-08-18 13:26:00,75.0,66.0,30.21,NW,311,0.0,-999.0,74,-99.99,,,0.00,265,weatherlink.com 1.10,2013-08-18 17:26:00,
2013-08-18 13:41:00,75.4,68.0,30.20,NW,311,0.0,-999.0,77,-99.99,,,0.00,496,weatherlink.com 1.10,2013-08-18 17:41:00,
2013-08-18 13:56:00,75.3,67.0,30.19,NW,311,1.0,-999.0,74,-99.99,,,0.00,819,weatherlink.com 1.10,2013-08-18 17:56:00,
2013-08-18 14:11:00,75.6,63.0,30.19,East,85,0.0,-999.0,66,-99.99,,,0.00,473,weatherlink.com 1.10,2013-08-18 18:11:00,
2013-08-18 14:26:00,76.3,63.0,30.18,East,85,0.0,-999.0,63,-99.99,,,0.00,510,weatherlink.com 1.10,2013-08-18 18:26:00,
2013-08-18 14:41:00,77.1,62.0,30.17,East,82,0.0,-999.0,60,-99.99,,,0.00,148,weatherlink.com 1.10,2013-08-18 18:41:00,
2013-08-18 14:56:00,76.6,63.0,30.16,East,99,0.0,-999.0,63,-99.99,,,0.00,309,weatherlink.com 1.10,2013-08-18 18:56:00,
2013-08-18 15:11:00,76.9,57.0,30.15,East,98,0.0,-999.0,51,-99.99,,,0.00,292,weatherlink.com 1.10,2013-08-18 19:11:00,
2013-08-18 15:26:00,76.2,58.0,30.15,East,98,0.0,-999.0,53,-99.99,,,0.00,174,weatherlink.com 1.10,2013-08-18 19:26:00,
2013-08-18 15:41:00,75.8,62.0,30.14,East,98,0.0,-999.0,62,-99.99,,,0.00,158,weatherlink.com 1.10,2013-08-18 19:41:00,
2013-08-18 15:56:00,75.0,63.0,30.14,East,98,0.0,-999.0,67,-99.99,,,0.00,220,weatherlink.com 1.10,2013-08-18 19:56:00,
2013-08-18 16:11:00,74.6,63.0,30.14,East,98,0.0,-999.0,68,-99.99,,,0.00,139,weatherlink.com 1.10,2013-08-18 20:11:00,
2013-08-18 16:26:00,74.6,63.0,30.13,East,98,0.0,-999.0,67,-99.99,,,0.00,139,weatherlink.com 1.10,2013-08-18 20:26:00,
2013-08-18 16:41:00,74.8,62.0,30.13,East,98,0.0,-999.0,65,-99.99,,,0.00,211,weatherlink.com 1.10,2013-08-18 20:41:00,
2013-08-18 16:56:00,74.4,63.0,30.12,East,98,0.0,-999.0,67,-99.99,,,0.00,195,weatherlink.com 1.10,2013-08-18 20:56:00,
2013-08-18 17:11:00,74.0,64.0,30.12,East,98,0.0,-999.0,72,-99.99,,,0.00,162,weatherlink.com 1.10,2013-08-18 21:11:00,
2013-08-18 17:26:00,74.1,63.0,30.12,East,98,0.0,-999.0,69,-99.99,,,0.00,149,weatherlink.com 1.10,2013-08-18 21:26:00,
2013-08-18 17:41:00,74.2,65.0,30.12,South,179,0.0,-999.0,72,-99.99,,,0.00,88,weatherlink.com 1.10,2013-08-18 21:41:00,
2013-08-18 17:56:00,73.5,65.0,30.12,South,179,0.0,-999.0,75,-99.99,,,0.00,84,weatherlink.com 1.10,2013-08-18 21:56:00,
2013-08-18 18:11:00,73.0,65.0,30.12,South,180,0.0,-999.0,77,-99.99,,,0.00,74,weatherlink.com 1.10,2013-08-18 22:11:00,
2013-08-18 18:26:00,72.5,65.0,30.12,South,180,0.0,-999.0,77,-99.99,,,0.00,56,weatherlink.com 1.10,2013-08-18 22:26:00,
2013-08-18 18:41:00,71.9,64.0,30.12,South,180,0.0,-999.0,77,-99.99,,,0.00,39,weatherlink.com 1.10,2013-08-18 22:41:00,
2013-08-18 18:56:00,71.5,65.0,30.12,South,180,0.0,-999.0,80,-99.99,,,0.00,30,weatherlink.com 1.10,2013-08-18 22:56:00,
2013-08-18 19:11:00,70.7,66.0,30.12,South,180,0.0,-999.0,84,-99.99,,,0.00,23,weatherlink.com 1.10,2013-08-18 23:11:00,
2013-08-18 19:26:00,70.0,65.0,30.12,South,179,0.0,-999.0,84,-99.99,,,0.00,7,weatherlink.com 1.10,2013-08-18 23:26:00,
2013-08-18 19:41:00,69.6,65.0,30.11,South,179,0.0,-999.0,84,-99.99,,,0.00,0,weatherlink.com 1.10,2013-08-18 23:41:00,
2013-08-18 19:56:00,69.3,65.0,30.12,South,179,0.0,-999.0,86,-99.99,,,0.00,0,weatherlink.com 1.10,2013-08-18 23:56:00,
2013-08-18 20:11:00,68.7,65.0,30.12,South,179,0.0,-999.0,87,-99.99,,,0.00,0,weatherlink.com 1.10,2013-08-19 00:11:00,
2013-08-18 20:26:00,68.0,64.0,30.12,South,179,0.0,-999.0,88,-99.99,,,0.00,0,weatherlink.com 1.10,2013-08-19 00:26:00,
2013-08-18 20:41:00,67.6,64.0,30.12,South,179,0.0,-999.0,89,-99.99,,,0.00,0,weatherlink.com 1.10,2013-08-19 00:41:00,
2013-08-18 20:56:00,67.1,64.0,30.12,South,179,0.0,-999.0,90,-99.99,,,0.00,0,weatherlink.com 1.10,2013-08-19 00:56:00,
2013-08-18 21:11:00,66.2,64.0,30.12,South,171,0.0,-999.0,91,-99.99,,,0.00,0,weatherlink.com 1.10,2013-08-19 01:11:00,
2013-08-18 21:26:00,65.8,64.0,30.12,South,171,0.0,-999.0,92,-99.99,,,0.00,0,weatherlink.com 1.10,2013-08-19 01:26:00,
2013-08-18 21:41:00,65.4,63.0,30.12,South,171,0.0,-999.0,93,-99.99,,,0.00,0,weatherlink.com 1.10,2013-08-19 01:41:00,
2013-08-18 21:56:00,65.1,63.0,30.11,South,171,0.0,-999.0,93,-99.99,,,0.00,0,weatherlink.com 1.10,2013-08-19 01:56:00,
2013-08-18 22:11:00,64.8,63.0,30.11,South,171,0.0,-999.0,93,-99.99,,,0.00,0,weatherlink.com 1.10,2013-08-19 02:11:00,
2013-08-18 22:26:00,64.3,63.0,30.12,South,171,0.0,-999.0,94,-99.99,,,0.00,0,weatherlink.com 1.10,2013-08-19 02:26:00,
2013-08-18 22:41:00,63.9,62.0,30.12,South,171,0.0,-999.0,94,-99.99,,,0.00,0,weatherlink.com 1.10,2013-08-19 02:41:00,
2013-08-18 22:56:00,63.6,62.0,30.11,South,171,0.0,-999.0,95,-99.99,,,0.00,0,weatherlink.com 1.10,2013-08-19 02:56:00,
2013-08-18 23:11:00,63.4,62.0,30.11,South,171,0.0,-999.0,95,-99.99,,,0.00,0,weatherlink.com 1.10,2013-08-19 03:11:00,
2013-08-18 23:26:00,63.1,62.0,30.11,South,171,0.0,-999.0,95,-99.99,,,0.00,0,weatherlink.com 1.10,2013-08-19 03:26:00,
2013-08-18 23:41:00,62.6,61.0,30.11,South,171,0.0,-999.0,95,-99.99,,,0.00,0,weatherlink.com 1.10,2013-08-19 03:41:00,
2013-08-18 23:56:00,62.2,61.0,30.11,South,171,0.0,-999.0,95,-99.99,,,0.00,0,weatherlink.com 1.10,2013-08-19 03:56:00,